sensor_id;sensor_type;location;lat;lon;timestamp;temperature;humidity
8778;DHT22;4425;50.872;4.712;2023-07-22T00:02:08;15.10;99.90
8778;DHT22;4425;50.872;4.712;2023-07-22T00:04:35;15.00;99.90
8778;DHT22;4425;50.872;4.712;2023-07-22T00:07:02;15.00;99.90
8778;DHT22;4425;50.872;4.712;2023-07-22T00:09:29;14.90;99.90
8778;DHT22;4425;50.872;4.712;2023-07-22T00:11:57;14.90;99.90
8778;DHT22;4425;50.872;4.712;2023-07-22T00:14:24;14.90;99.90
8778;DHT22;4425;50.872;4.712;2023-07-22T00:16:51;14.80;99.90
8778;DHT22;4425;50.872;4.712;2023-07-22T00:19:18;14.80;99.90
8778;DHT22;4425;50.872;4.712;2023-07-22T00:21:45;14.80;99.90
8778;DHT22;4425;50.872;4.712;2023-07-22T00:24:12;14.80;99.90
8778;DHT22;4425;50.872;4.712;2023-07-22T00:26:40;14.80;99.90
8778;DHT22;4425;50.872;4.712;2023-07-22T00:29:09;14.70;99.90
8778;DHT22;4425;50.872;4.712;2023-07-22T00:31:36;14.70;99.90
8778;DHT22;4425;50.872;4.712;2023-07-22T00:34:03;14.70;99.90
8778;DHT22;4425;50.872;4.712;2023-07-22T00:36:30;14.70;99.90
8778;DHT22;4425;50.872;4.712;2023-07-22T00:38:57;14.70;99.90
8778;DHT22;4425;50.872;4.712;2023-07-22T00:41:24;14.70;99.90
8778;DHT22;4425;50.872;4.712;2023-07-22T00:43:51;14.80;99.90
8778;DHT22;4425;50.872;4.712;2023-07-22T00:46:19;14.70;99.90
8778;DHT22;4425;50.872;4.712;2023-07-22T00:48:47;14.70;99.90
8778;DHT22;4425;50.872;4.712;2023-07-22T00:51:15;14.70;99.90
8778;DHT22;4425;50.872;4.712;2023-07-22T00:53:42;14.70;99.90
8778;DHT22;4425;50.872;4.712;2023-07-22T00:56:09;14.70;99.90
8778;DHT22;4425;50.872;4.712;2023-07-22T00:58:36;14.60;99.90
8778;DHT22;4425;50.872;4.712;2023-07-22T01:01:02;14.50;99.90
8778;DHT22;4425;50.872;4.712;2023-07-22T01:03:31;14.50;99.90
8778;DHT22;4425;50.872;4.712;2023-07-22T01:05:59;14.60;99.90
8778;DHT22;4425;50.872;4.712;2023-07-22T01:08:26;14.60;99.90
8778;DHT22;4425;50.872;4.712;2023-07-22T01:10:53;14.60;99.90
8778;DHT22;4425;50.872;4.712;2023-07-22T01:13:20;14.60;99.90
8778;DHT22;4425;50.872;4.712;2023-07-22T01:15:47;14.60;99.90
8778;DHT22;4425;50.872;4.712;2023-07-22T01:18:14;14.70;99.90
8778;DHT22;4425;50.872;4.712;2023-07-22T01:20:43;14.70;99.90
8778;DHT22;4425;50.872;4.712;2023-07-22T01:23:12;14.70;99.90
8778;DHT22;4425;50.872;4.712;2023-07-22T01:25:39;14.80;99.90
8778;DHT22;4425;50.872;4.712;2023-07-22T01:28:09;14.80;99.90
8778;DHT22;4425;50.872;4.712;2023-07-22T01:30:36;14.90;99.90
8778;DHT22;4425;50.872;4.712;2023-07-22T01:33:03;14.90;99.90
8778;DHT22;4425;50.872;4.712;2023-07-22T01:35:30;15.00;99.90
8778;DHT22;4425;50.872;4.712;2023-07-22T01:37:57;15.10;99.90
8778;DHT22;4425;50.872;4.712;2023-07-22T01:40:25;15.20;99.90
8778;DHT22;4425;50.872;4.712;2023-07-22T01:42:54;15.30;99.90
8778;DHT22;4425;50.872;4.712;2023-07-22T01:45:20;15.30;99.90
8778;DHT22;4425;50.872;4.712;2023-07-22T01:47:47;15.40;99.90
8778;DHT22;4425;50.872;4.712;2023-07-22T01:50:14;15.30;99.90
8778;DHT22;4425;50.872;4.712;2023-07-22T07:41:54;21.20;99.90
8778;DHT22;4425;50.872;4.712;2023-07-22T07:44:21;22.50;99.90
8778;DHT22;4425;50.872;4.712;2023-07-22T07:46:48;23.00;99.90
8778;DHT22;4425;50.872;4.712;2023-07-22T07:49:15;23.20;99.90
8778;DHT22;4425;50.872;4.712;2023-07-22T07:51:42;23.20;99.90
8778;DHT22;4425;50.872;4.712;2023-07-22T07:54:09;23.60;99.90
8778;DHT22;4425;50.872;4.712;2023-07-22T07:56:35;24.00;99.90
8778;DHT22;4425;50.872;4.712;2023-07-22T07:59:04;24.20;99.90
8778;DHT22;4425;50.872;4.712;2023-07-22T08:01:34;23.60;99.90
8778;DHT22;4425;50.872;4.712;2023-07-22T08:04:01;22.60;99.90
8778;DHT22;4425;50.872;4.712;2023-07-22T08:06:28;21.80;99.90
8778;DHT22;4425;50.872;4.712;2023-07-22T08:08:54;21.20;99.90
8778;DHT22;4425;50.872;4.712;2023-07-22T08:11:21;21.00;99.90
8778;DHT22;4425;50.872;4.712;2023-07-22T08:13:48;21.00;99.90
8778;DHT22;4425;50.872;4.712;2023-07-22T08:16:18;20.80;99.90
8778;DHT22;4425;50.872;4.712;2023-07-22T08:18:44;20.60;99.90
8778;DHT22;4425;50.872;4.712;2023-07-22T08:21:12;20.50;99.90
8778;DHT22;4425;50.872;4.712;2023-07-22T08:23:39;20.50;99.90
8778;DHT22;4425;50.872;4.712;2023-07-22T08:26:07;20.60;99.90
8778;DHT22;4425;50.872;4.712;2023-07-22T08:28:34;20.70;99.90
8778;DHT22;4425;50.872;4.712;2023-07-22T08:31:01;20.80;99.90
8778;DHT22;4425;50.872;4.712;2023-07-22T08:33:29;21.00;99.90
8778;DHT22;4425;50.872;4.712;2023-07-22T08:35:56;21.30;99.90
8778;DHT22;4425;50.872;4.712;2023-07-22T08:38:23;21.50;99.90
8778;DHT22;4425;50.872;4.712;2023-07-22T08:40:50;21.70;99.90
8778;DHT22;4425;50.872;4.712;2023-07-22T08:43:20;21.80;99.90
8778;DHT22;4425;50.872;4.712;2023-07-22T08:45:48;22.10;99.90
8778;DHT22;4425;50.872;4.712;2023-07-22T08:48:17;22.30;99.90
8778;DHT22;4425;50.872;4.712;2023-07-22T08:50:49;22.60;99.90
8778;DHT22;4425;50.872;4.712;2023-07-22T08:53:18;22.70;99.90
8778;DHT22;4425;50.872;4.712;2023-07-22T08:55:46;22.70;99.90
8778;DHT22;4425;50.872;4.712;2023-07-22T08:58:13;22.60;99.90
8778;DHT22;4425;50.872;4.712;2023-07-22T09:00:40;22.40;99.90
8778;DHT22;4425;50.872;4.712;2023-07-22T09:03:08;22.10;99.90
8778;DHT22;4425;50.872;4.712;2023-07-22T09:05:36;21.80;99.90
8778;DHT22;4425;50.872;4.712;2023-07-22T09:08:06;21.60;99.90
8778;DHT22;4425;50.872;4.712;2023-07-22T09:10:33;21.70;99.90
8778;DHT22;4425;50.872;4.712;2023-07-22T09:13:01;22.10;99.90
8778;DHT22;4425;50.872;4.712;2023-07-22T09:15:28;23.00;99.90
8778;DHT22;4425;50.872;4.712;2023-07-22T09:17:55;23.60;99.90
8778;DHT22;4425;50.872;4.712;2023-07-22T09:20:22;23.70;99.90
8778;DHT22;4425;50.872;4.712;2023-07-22T09:22:50;23.50;99.90
8778;DHT22;4425;50.872;4.712;2023-07-22T09:25:20;23.50;99.90
8778;DHT22;4425;50.872;4.712;2023-07-22T09:27:48;23.40;99.90
8778;DHT22;4425;50.872;4.712;2023-07-22T09:30:24;23.30;99.90
8778;DHT22;4425;50.872;4.712;2023-07-22T09:32:53;23.20;99.90
8778;DHT22;4425;50.872;4.712;2023-07-22T09:35:20;23.10;99.90
8778;DHT22;4425;50.872;4.712;2023-07-22T09:37:48;23.20;99.90
8778;DHT22;4425;50.872;4.712;2023-07-22T09:40:16;23.20;99.90
8778;DHT22;4425;50.872;4.712;2023-07-22T09:42:49;23.10;99.90
8778;DHT22;4425;50.872;4.712;2023-07-22T09:45:17;22.90;99.90
8778;DHT22;4425;50.872;4.712;2023-07-22T09:47:46;23.00;99.90
8778;DHT22;4425;50.872;4.712;2023-07-22T09:50:15;22.80;99.90
8778;DHT22;4425;50.872;4.712;2023-07-22T09:52:46;22.30;99.90
8778;DHT22;4425;50.872;4.712;2023-07-22T09:55:18;22.00;99.90
8778;DHT22;4425;50.872;4.712;2023-07-22T09:57:49;22.00;99.90
8778;DHT22;4425;50.872;4.712;2023-07-22T10:00:16;22.10;99.90
8778;DHT22;4425;50.872;4.712;2023-07-22T10:02:46;22.10;99.90
8778;DHT22;4425;50.872;4.712;2023-07-22T10:05:16;22.20;99.90
8778;DHT22;4425;50.872;4.712;2023-07-22T10:07:44;22.20;99.90
8778;DHT22;4425;50.872;4.712;2023-07-22T10:10:12;22.30;99.90
8778;DHT22;4425;50.872;4.712;2023-07-22T10:12:42;22.40;99.90
8778;DHT22;4425;50.872;4.712;2023-07-22T10:15:12;22.50;99.90
8778;DHT22;4425;50.872;4.712;2023-07-22T10:17:40;22.70;99.90
8778;DHT22;4425;50.872;4.712;2023-07-22T10:20:08;22.90;99.90
8778;DHT22;4425;50.872;4.712;2023-07-22T10:22:38;23.10;99.90
8778;DHT22;4425;50.872;4.712;2023-07-22T10:25:06;23.10;99.90
8778;DHT22;4425;50.872;4.712;2023-07-22T10:27:34;22.80;99.90
8778;DHT22;4425;50.872;4.712;2023-07-22T10:30:03;22.70;99.90
8778;DHT22;4425;50.872;4.712;2023-07-22T10:32:36;22.60;99.90
8778;DHT22;4425;50.872;4.712;2023-07-22T10:35:03;22.50;99.90
8778;DHT22;4425;50.872;4.712;2023-07-22T10:37:31;22.60;99.90
8778;DHT22;4425;50.872;4.712;2023-07-22T10:40:00;22.70;99.90
8778;DHT22;4425;50.872;4.712;2023-07-22T10:42:27;22.70;99.90
8778;DHT22;4425;50.872;4.712;2023-07-22T10:44:54;22.50;99.90
8778;DHT22;4425;50.872;4.712;2023-07-22T10:47:43;22.50;99.90
8778;DHT22;4425;50.872;4.712;2023-07-22T10:50:38;22.70;99.90
8778;DHT22;4425;50.872;4.712;2023-07-22T10:53:06;23.00;99.90
8778;DHT22;4425;50.872;4.712;2023-07-22T10:55:33;23.10;99.90
8778;DHT22;4425;50.872;4.712;2023-07-22T10:58:04;23.00;99.90
8778;DHT22;4425;50.872;4.712;2023-07-22T11:00:32;23.10;99.90
8778;DHT22;4425;50.872;4.712;2023-07-22T11:03:13;23.10;99.90
8778;DHT22;4425;50.872;4.712;2023-07-22T11:05:48;22.90;99.90
8778;DHT22;4425;50.872;4.712;2023-07-22T11:08:15;22.90;99.90
8778;DHT22;4425;50.872;4.712;2023-07-22T11:11:00;22.90;99.90
8778;DHT22;4425;50.872;4.712;2023-07-22T11:13:27;23.00;99.90
8778;DHT22;4425;50.872;4.712;2023-07-22T11:15:58;23.20;99.90
8778;DHT22;4425;50.872;4.712;2023-07-22T11:18:37;23.20;99.90
8778;DHT22;4425;50.872;4.712;2023-07-22T11:21:08;23.20;99.90
8778;DHT22;4425;50.872;4.712;2023-07-22T11:23:36;23.20;99.90
8778;DHT22;4425;50.872;4.712;2023-07-22T11:26:03;23.20;99.90
8778;DHT22;4425;50.872;4.712;2023-07-22T11:28:31;23.40;99.90
8778;DHT22;4425;50.872;4.712;2023-07-22T11:30:57;23.60;99.90
8778;DHT22;4425;50.872;4.712;2023-07-22T11:33:26;23.70;99.90
8778;DHT22;4425;50.872;4.712;2023-07-22T11:36:05;23.80;99.90
8778;DHT22;4425;50.872;4.712;2023-07-22T11:38:32;23.70;99.90
8778;DHT22;4425;50.872;4.712;2023-07-22T11:40:59;23.80;99.90
8778;DHT22;4425;50.872;4.712;2023-07-22T11:43:27;23.70;99.90
8778;DHT22;4425;50.872;4.712;2023-07-22T11:45:54;23.80;99.90
8778;DHT22;4425;50.872;4.712;2023-07-22T11:48:21;23.60;99.90
8778;DHT22;4425;50.872;4.712;2023-07-22T11:50:48;23.60;99.90
8778;DHT22;4425;50.872;4.712;2023-07-22T11:53:19;23.50;99.90
8778;DHT22;4425;50.872;4.712;2023-07-22T11:55:45;23.60;99.90
8778;DHT22;4425;50.872;4.712;2023-07-22T11:58:13;23.70;99.90
8778;DHT22;4425;50.872;4.712;2023-07-22T12:00:42;23.70;99.90
8778;DHT22;4425;50.872;4.712;2023-07-22T12:03:10;23.70;99.90
8778;DHT22;4425;50.872;4.712;2023-07-22T12:05:36;23.70;99.90
8778;DHT22;4425;50.872;4.712;2023-07-22T12:08:04;24.00;99.90
8778;DHT22;4425;50.872;4.712;2023-07-22T12:10:33;24.00;99.90
8778;DHT22;4425;50.872;4.712;2023-07-22T12:13:01;23.90;99.90
8778;DHT22;4425;50.872;4.712;2023-07-22T12:15:29;23.70;99.90
8778;DHT22;4425;50.872;4.712;2023-07-22T12:17:56;23.50;99.90
8778;DHT22;4425;50.872;4.712;2023-07-22T12:20:24;23.50;99.90
8778;DHT22;4425;50.872;4.712;2023-07-22T12:22:52;23.70;99.90
8778;DHT22;4425;50.872;4.712;2023-07-22T12:25:19;23.80;99.90
8778;DHT22;4425;50.872;4.712;2023-07-22T12:27:47;24.00;99.90
8778;DHT22;4425;50.872;4.712;2023-07-22T12:30:15;24.00;99.90
8778;DHT22;4425;50.872;4.712;2023-07-22T12:32:42;24.00;99.90
8778;DHT22;4425;50.872;4.712;2023-07-22T12:35:09;24.00;99.90
8778;DHT22;4425;50.872;4.712;2023-07-22T12:37:39;24.00;99.90
8778;DHT22;4425;50.872;4.712;2023-07-22T12:40:07;23.90;99.80
8778;DHT22;4425;50.872;4.712;2023-07-22T12:42:34;23.80;99.90
8778;DHT22;4425;50.872;4.712;2023-07-22T12:45:03;23.90;99.60
8778;DHT22;4425;50.872;4.712;2023-07-22T12:47:30;23.80;99.40
8778;DHT22;4425;50.872;4.712;2023-07-22T12:49:57;23.80;99.30
8778;DHT22;4425;50.872;4.712;2023-07-22T12:52:23;23.70;99.60
8778;DHT22;4425;50.872;4.712;2023-07-22T12:54:50;23.70;99.40
8778;DHT22;4425;50.872;4.712;2023-07-22T12:57:17;23.60;99.40
8778;DHT22;4425;50.872;4.712;2023-07-22T12:59:44;23.50;99.70
8778;DHT22;4425;50.872;4.712;2023-07-22T13:02:12;23.60;99.70
8778;DHT22;4425;50.872;4.712;2023-07-22T13:04:39;23.50;99.30
8778;DHT22;4425;50.872;4.712;2023-07-22T13:07:06;23.30;98.90
8778;DHT22;4425;50.872;4.712;2023-07-22T13:09:33;23.40;99.40
8778;DHT22;4425;50.872;4.712;2023-07-22T13:11:59;23.40;99.30
8778;DHT22;4425;50.872;4.712;2023-07-22T13:14:26;23.50;99.50
8778;DHT22;4425;50.872;4.712;2023-07-22T13:16:53;23.90;98.90
8778;DHT22;4425;50.872;4.712;2023-07-22T13:19:21;24.00;98.70
8778;DHT22;4425;50.872;4.712;2023-07-22T13:21:48;24.10;98.90
8778;DHT22;4425;50.872;4.712;2023-07-22T13:24:15;24.20;98.30
8778;DHT22;4425;50.872;4.712;2023-07-22T13:26:42;24.10;98.80
8778;DHT22;4425;50.872;4.712;2023-07-22T13:29:09;24.10;98.90
8778;DHT22;4425;50.872;4.712;2023-07-22T13:31:36;24.10;98.40
8778;DHT22;4425;50.872;4.712;2023-07-22T13:34:03;24.10;98.50
8778;DHT22;4425;50.872;4.712;2023-07-22T13:36:31;24.10;98.50
8778;DHT22;4425;50.872;4.712;2023-07-22T13:38:58;24.20;98.50
8778;DHT22;4425;50.872;4.712;2023-07-22T13:41:25;24.20;97.70
8778;DHT22;4425;50.872;4.712;2023-07-22T13:43:51;24.40;97.70
8778;DHT22;4425;50.872;4.712;2023-07-22T13:46:19;24.60;97.50
8778;DHT22;4425;50.872;4.712;2023-07-22T13:48:46;24.50;97.30
8778;DHT22;4425;50.872;4.712;2023-07-22T13:51:13;24.30;97.70
8778;DHT22;4425;50.872;4.712;2023-07-22T13:53:41;24.10;97.60
8778;DHT22;4425;50.872;4.712;2023-07-22T13:56:08;24.00;97.50
8778;DHT22;4425;50.872;4.712;2023-07-22T13:58:35;24.00;97.60
8778;DHT22;4425;50.872;4.712;2023-07-22T14:01:01;24.10;97.80
8778;DHT22;4425;50.872;4.712;2023-07-22T14:03:28;24.10;97.50
8778;DHT22;4425;50.872;4.712;2023-07-22T14:05:56;24.10;97.80
8778;DHT22;4425;50.872;4.712;2023-07-22T14:08:23;24.30;98.00
8778;DHT22;4425;50.872;4.712;2023-07-22T14:10:51;24.30;97.10
8778;DHT22;4425;50.872;4.712;2023-07-22T14:13:18;24.50;97.30
8778;DHT22;4425;50.872;4.712;2023-07-22T14:15:45;24.50;97.20
8778;DHT22;4425;50.872;4.712;2023-07-22T14:18:12;24.40;97.10
8778;DHT22;4425;50.872;4.712;2023-07-22T14:20:42;24.10;97.40
8778;DHT22;4425;50.872;4.712;2023-07-22T14:23:09;23.90;97.90
8778;DHT22;4425;50.872;4.712;2023-07-22T14:25:36;23.80;97.90
8778;DHT22;4425;50.872;4.712;2023-07-22T14:28:04;23.70;98.10
8778;DHT22;4425;50.872;4.712;2023-07-22T14:30:32;23.50;98.30
8778;DHT22;4425;50.872;4.712;2023-07-22T14:32:59;23.40;98.60
8778;DHT22;4425;50.872;4.712;2023-07-22T14:35:26;23.40;98.90
8778;DHT22;4425;50.872;4.712;2023-07-22T14:37:52;23.20;99.10
8778;DHT22;4425;50.872;4.712;2023-07-22T14:40:19;23.00;99.30
8778;DHT22;4425;50.872;4.712;2023-07-22T14:42:46;22.70;99.60
8778;DHT22;4425;50.872;4.712;2023-07-22T14:45:15;22.50;99.80
8778;DHT22;4425;50.872;4.712;2023-07-22T14:47:42;22.40;99.90
8778;DHT22;4425;50.872;4.712;2023-07-22T14:50:09;22.50;99.90
8778;DHT22;4425;50.872;4.712;2023-07-22T14:52:36;22.40;99.90
8778;DHT22;4425;50.872;4.712;2023-07-22T14:55:03;22.30;99.90
8778;DHT22;4425;50.872;4.712;2023-07-22T14:57:30;22.30;99.90
8778;DHT22;4425;50.872;4.712;2023-07-22T14:59:58;22.50;99.90
8778;DHT22;4425;50.872;4.712;2023-07-22T15:02:26;22.60;99.90
8778;DHT22;4425;50.872;4.712;2023-07-22T15:04:53;22.80;99.90
8778;DHT22;4425;50.872;4.712;2023-07-22T15:07:21;23.00;99.90
8778;DHT22;4425;50.872;4.712;2023-07-22T15:09:48;23.30;99.90
8778;DHT22;4425;50.872;4.712;2023-07-22T15:12:15;23.40;99.90
8778;DHT22;4425;50.872;4.712;2023-07-22T15:14:44;23.40;99.70
8778;DHT22;4425;50.872;4.712;2023-07-22T15:17:11;23.50;99.80
8778;DHT22;4425;50.872;4.712;2023-07-22T15:19:39;23.50;99.70
8778;DHT22;4425;50.872;4.712;2023-07-22T15:22:06;23.50;99.60
8778;DHT22;4425;50.872;4.712;2023-07-22T15:24:33;23.50;99.70
8778;DHT22;4425;50.872;4.712;2023-07-22T15:27:00;23.50;99.90
8778;DHT22;4425;50.872;4.712;2023-07-22T15:29:27;23.50;99.90
8778;DHT22;4425;50.872;4.712;2023-07-22T15:31:53;23.60;99.80
8778;DHT22;4425;50.872;4.712;2023-07-22T15:34:20;23.60;99.80
8778;DHT22;4425;50.872;4.712;2023-07-22T15:36:49;23.60;99.70
8778;DHT22;4425;50.872;4.712;2023-07-22T15:39:15;23.50;99.80
8778;DHT22;4425;50.872;4.712;2023-07-22T15:41:42;23.40;99.90
8778;DHT22;4425;50.872;4.712;2023-07-22T15:44:09;23.20;99.90
8778;DHT22;4425;50.872;4.712;2023-07-22T15:46:36;23.20;99.90
8778;DHT22;4425;50.872;4.712;2023-07-22T15:49:03;23.30;99.90
8778;DHT22;4425;50.872;4.712;2023-07-22T15:51:30;23.20;99.90
8778;DHT22;4425;50.872;4.712;2023-07-22T15:53:58;23.10;99.90
8778;DHT22;4425;50.872;4.712;2023-07-22T15:56:25;23.20;99.90
8778;DHT22;4425;50.872;4.712;2023-07-22T15:58:52;23.20;99.90
8778;DHT22;4425;50.872;4.712;2023-07-22T16:01:19;23.20;99.90
8778;DHT22;4425;50.872;4.712;2023-07-22T16:03:46;23.20;99.90
8778;DHT22;4425;50.872;4.712;2023-07-22T16:06:13;23.10;99.90
8778;DHT22;4425;50.872;4.712;2023-07-22T16:08:40;23.00;99.90
8778;DHT22;4425;50.872;4.712;2023-07-22T16:11:08;23.00;99.90
8778;DHT22;4425;50.872;4.712;2023-07-22T16:13:35;23.00;99.90
8778;DHT22;4425;50.872;4.712;2023-07-22T16:16:02;23.00;99.90
8778;DHT22;4425;50.872;4.712;2023-07-22T16:18:29;22.90;99.90
8778;DHT22;4425;50.872;4.712;2023-07-22T16:20:56;22.90;99.90
8778;DHT22;4425;50.872;4.712;2023-07-22T16:23:24;22.90;99.90
8778;DHT22;4425;50.872;4.712;2023-07-22T16:25:51;22.80;99.90
8778;DHT22;4425;50.872;4.712;2023-07-22T16:28:19;22.80;99.90
8778;DHT22;4425;50.872;4.712;2023-07-22T16:30:46;22.70;99.90
8778;DHT22;4425;50.872;4.712;2023-07-22T16:33:13;22.70;99.90
8778;DHT22;4425;50.872;4.712;2023-07-22T16:35:40;22.70;99.90
8778;DHT22;4425;50.872;4.712;2023-07-22T16:38:07;22.70;99.90
8778;DHT22;4425;50.872;4.712;2023-07-22T16:40:34;22.60;99.90
8778;DHT22;4425;50.872;4.712;2023-07-22T16:43:00;22.60;99.90
8778;DHT22;4425;50.872;4.712;2023-07-22T16:45:29;22.70;99.90
8778;DHT22;4425;50.872;4.712;2023-07-22T16:47:56;22.70;99.90
8778;DHT22;4425;50.872;4.712;2023-07-22T16:50:23;22.70;99.90
8778;DHT22;4425;50.872;4.712;2023-07-22T16:52:50;22.70;99.90
8778;DHT22;4425;50.872;4.712;2023-07-22T16:55:17;22.70;99.90
8778;DHT22;4425;50.872;4.712;2023-07-22T16:57:43;22.70;99.90
8778;DHT22;4425;50.872;4.712;2023-07-22T17:00:11;22.80;99.90
8778;DHT22;4425;50.872;4.712;2023-07-22T17:02:44;22.90;99.90
8778;DHT22;4425;50.872;4.712;2023-07-22T17:05:11;22.90;99.90
8778;DHT22;4425;50.872;4.712;2023-07-22T17:07:39;22.90;99.90
8778;DHT22;4425;50.872;4.712;2023-07-22T17:10:08;22.80;99.90
8778;DHT22;4425;50.872;4.712;2023-07-22T17:12:35;22.70;99.90
8778;DHT22;4425;50.872;4.712;2023-07-22T17:15:03;22.70;99.90
8778;DHT22;4425;50.872;4.712;2023-07-22T17:17:30;22.60;99.90
8778;DHT22;4425;50.872;4.712;2023-07-22T17:19:58;22.70;99.90
8778;DHT22;4425;50.872;4.712;2023-07-22T17:22:25;22.60;99.90
8778;DHT22;4425;50.872;4.712;2023-07-22T17:24:52;22.60;99.90
8778;DHT22;4425;50.872;4.712;2023-07-22T17:27:19;22.60;99.90
8778;DHT22;4425;50.872;4.712;2023-07-22T17:29:46;22.50;99.90
8778;DHT22;4425;50.872;4.712;2023-07-22T17:32:13;22.50;99.90
8778;DHT22;4425;50.872;4.712;2023-07-22T17:34:40;22.50;99.90
8778;DHT22;4425;50.872;4.712;2023-07-22T17:37:08;22.40;99.90
8778;DHT22;4425;50.872;4.712;2023-07-22T17:39:35;22.50;99.90
8778;DHT22;4425;50.872;4.712;2023-07-22T17:42:03;22.50;99.90
8778;DHT22;4425;50.872;4.712;2023-07-22T17:44:30;22.50;99.90
8778;DHT22;4425;50.872;4.712;2023-07-22T17:46:57;22.40;99.90
8778;DHT22;4425;50.872;4.712;2023-07-22T17:49:24;22.30;99.90
8778;DHT22;4425;50.872;4.712;2023-07-22T17:51:51;22.20;99.90
8778;DHT22;4425;50.872;4.712;2023-07-22T17:54:20;22.20;99.90
8778;DHT22;4425;50.872;4.712;2023-07-22T17:56:47;22.20;99.90
8778;DHT22;4425;50.872;4.712;2023-07-22T17:59:13;22.20;99.90
8778;DHT22;4425;50.872;4.712;2023-07-22T18:01:40;22.20;99.90
8778;DHT22;4425;50.872;4.712;2023-07-22T18:04:07;22.20;99.90
8778;DHT22;4425;50.872;4.712;2023-07-22T18:06:34;22.10;99.90
8778;DHT22;4425;50.872;4.712;2023-07-22T18:09:02;22.00;99.90
8778;DHT22;4425;50.872;4.712;2023-07-22T18:11:30;21.90;99.90
8778;DHT22;4425;50.872;4.712;2023-07-22T18:13:57;21.90;99.90
8778;DHT22;4425;50.872;4.712;2023-07-22T18:16:24;21.90;99.90
8778;DHT22;4425;50.872;4.712;2023-07-22T18:18:51;21.90;99.90
8778;DHT22;4425;50.872;4.712;2023-07-22T18:21:19;21.90;99.90
8778;DHT22;4425;50.872;4.712;2023-07-22T20:09:12;20.50;99.90
8778;DHT22;4425;50.872;4.712;2023-07-22T20:11:39;20.40;99.90
8778;DHT22;4425;50.872;4.712;2023-07-22T20:14:06;20.40;99.90
8778;DHT22;4425;50.872;4.712;2023-07-22T20:16:33;20.30;99.90
8778;DHT22;4425;50.872;4.712;2023-07-22T20:19:00;20.30;99.90
8778;DHT22;4425;50.872;4.712;2023-07-22T20:21:27;20.30;99.90
8778;DHT22;4425;50.872;4.712;2023-07-22T20:23:54;20.30;99.90
8778;DHT22;4425;50.872;4.712;2023-07-22T20:26:23;20.40;99.90
8778;DHT22;4425;50.872;4.712;2023-07-22T20:28:50;20.40;99.90
8778;DHT22;4425;50.872;4.712;2023-07-22T20:31:17;20.40;99.90
8778;DHT22;4425;50.872;4.712;2023-07-22T20:33:44;20.40;99.90
8778;DHT22;4425;50.872;4.712;2023-07-22T20:36:10;20.40;99.90
8778;DHT22;4425;50.872;4.712;2023-07-22T20:38:37;20.30;99.90
8778;DHT22;4425;50.872;4.712;2023-07-22T20:41:05;20.30;99.90
8778;DHT22;4425;50.872;4.712;2023-07-22T20:43:34;20.30;99.90
8778;DHT22;4425;50.872;4.712;2023-07-22T20:46:01;20.30;99.90
8778;DHT22;4425;50.872;4.712;2023-07-22T20:48:29;20.20;99.90
8778;DHT22;4425;50.872;4.712;2023-07-22T20:50:57;20.20;99.90
8778;DHT22;4425;50.872;4.712;2023-07-22T20:53:24;20.10;99.90
8778;DHT22;4425;50.872;4.712;2023-07-22T20:55:56;20.10;99.90
8778;DHT22;4425;50.872;4.712;2023-07-22T20:58:23;20.10;99.90
8778;DHT22;4425;50.872;4.712;2023-07-22T21:00:53;20.10;99.90
8778;DHT22;4425;50.872;4.712;2023-07-22T21:03:20;20.00;99.90
8778;DHT22;4425;50.872;4.712;2023-07-22T21:05:52;20.00;99.90
8778;DHT22;4425;50.872;4.712;2023-07-22T21:08:20;19.90;99.90
8778;DHT22;4425;50.872;4.712;2023-07-22T21:10:48;19.90;99.90
8778;DHT22;4425;50.872;4.712;2023-07-22T21:13:16;19.80;99.90
8778;DHT22;4425;50.872;4.712;2023-07-22T21:15:43;19.70;99.90
8778;DHT22;4425;50.872;4.712;2023-07-22T21:18:14;19.70;99.90
8778;DHT22;4425;50.872;4.712;2023-07-22T21:20:41;19.70;99.90
8778;DHT22;4425;50.872;4.712;2023-07-22T21:23:08;19.60;99.90
8778;DHT22;4425;50.872;4.712;2023-07-22T21:25:35;19.60;99.90
8778;DHT22;4425;50.872;4.712;2023-07-22T21:28:02;19.60;99.90
8778;DHT22;4425;50.872;4.712;2023-07-22T21:30:29;19.50;99.90
8778;DHT22;4425;50.872;4.712;2023-07-22T21:32:56;19.60;99.90
8778;DHT22;4425;50.872;4.712;2023-07-22T21:35:24;19.50;99.90
8778;DHT22;4425;50.872;4.712;2023-07-22T21:37:51;19.60;99.90
8778;DHT22;4425;50.872;4.712;2023-07-22T21:40:18;19.60;99.90
8778;DHT22;4425;50.872;4.712;2023-07-22T21:42:45;19.60;99.90
8778;DHT22;4425;50.872;4.712;2023-07-22T21:45:13;19.60;99.90
8778;DHT22;4425;50.872;4.712;2023-07-22T21:47:40;19.60;99.90
8778;DHT22;4425;50.872;4.712;2023-07-22T21:50:07;19.60;99.90
8778;DHT22;4425;50.872;4.712;2023-07-22T21:52:36;19.60;99.90
8778;DHT22;4425;50.872;4.712;2023-07-22T21:55:03;19.50;99.90
8778;DHT22;4425;50.872;4.712;2023-07-22T21:57:30;19.50;99.90
8778;DHT22;4425;50.872;4.712;2023-07-22T21:59:57;19.50;99.90
8778;DHT22;4425;50.872;4.712;2023-07-22T22:02:24;19.60;99.90
8778;DHT22;4425;50.872;4.712;2023-07-22T22:04:52;19.60;99.90
8778;DHT22;4425;50.872;4.712;2023-07-22T22:07:19;19.60;99.90
8778;DHT22;4425;50.872;4.712;2023-07-22T22:09:47;19.50;99.90
8778;DHT22;4425;50.872;4.712;2023-07-22T22:12:14;19.50;99.90
8778;DHT22;4425;50.872;4.712;2023-07-22T22:14:41;19.50;99.90
8778;DHT22;4425;50.872;4.712;2023-07-22T22:17:08;19.40;99.90
8778;DHT22;4425;50.872;4.712;2023-07-22T22:19:35;19.40;99.90
8778;DHT22;4425;50.872;4.712;2023-07-22T22:22:02;19.40;99.90
8778;DHT22;4425;50.872;4.712;2023-07-22T22:24:29;19.40;99.90
8778;DHT22;4425;50.872;4.712;2023-07-22T22:26:59;19.30;99.90
8778;DHT22;4425;50.872;4.712;2023-07-22T22:29:26;19.20;99.90
8778;DHT22;4425;50.872;4.712;2023-07-22T22:31:53;19.20;99.90
8778;DHT22;4425;50.872;4.712;2023-07-22T22:34:20;19.20;99.90
8778;DHT22;4425;50.872;4.712;2023-07-22T22:36:47;19.10;99.90
8778;DHT22;4425;50.872;4.712;2023-07-22T22:39:14;19.10;99.90
8778;DHT22;4425;50.872;4.712;2023-07-22T22:41:41;19.10;99.90
8778;DHT22;4425;50.872;4.712;2023-07-22T22:44:09;19.00;99.90
8778;DHT22;4425;50.872;4.712;2023-07-22T22:46:36;19.00;99.90
8778;DHT22;4425;50.872;4.712;2023-07-22T22:49:04;18.90;99.90
8778;DHT22;4425;50.872;4.712;2023-07-22T22:51:31;18.90;99.90
8778;DHT22;4425;50.872;4.712;2023-07-22T22:53:58;18.80;99.90
8778;DHT22;4425;50.872;4.712;2023-07-22T22:56:25;18.70;99.90
8778;DHT22;4425;50.872;4.712;2023-07-22T22:58:52;18.70;99.90
8778;DHT22;4425;50.872;4.712;2023-07-22T23:01:21;18.60;99.90
8778;DHT22;4425;50.872;4.712;2023-07-22T23:03:47;18.60;99.90
8778;DHT22;4425;50.872;4.712;2023-07-22T23:06:16;18.50;99.90
8778;DHT22;4425;50.872;4.712;2023-07-22T23:08:43;18.50;99.90
8778;DHT22;4425;50.872;4.712;2023-07-22T23:11:13;18.50;99.90
8778;DHT22;4425;50.872;4.712;2023-07-22T23:13:42;18.50;99.90
8778;DHT22;4425;50.872;4.712;2023-07-22T23:16:10;18.50;99.90
8778;DHT22;4425;50.872;4.712;2023-07-22T23:18:40;18.50;99.90
8778;DHT22;4425;50.872;4.712;2023-07-22T23:21:08;18.50;99.90
8778;DHT22;4425;50.872;4.712;2023-07-22T23:23:35;18.40;99.90
8778;DHT22;4425;50.872;4.712;2023-07-22T23:26:03;18.40;99.90
8778;DHT22;4425;50.872;4.712;2023-07-22T23:28:30;18.40;99.90
8778;DHT22;4425;50.872;4.712;2023-07-22T23:30:58;18.40;99.90
8778;DHT22;4425;50.872;4.712;2023-07-22T23:33:27;18.30;99.90
8778;DHT22;4425;50.872;4.712;2023-07-22T23:36:00;18.30;99.90
8778;DHT22;4425;50.872;4.712;2023-07-22T23:38:28;18.30;99.90
8778;DHT22;4425;50.872;4.712;2023-07-22T23:40:55;18.30;99.90